Time;durP1;ratioP1;P1;durP2;ratioP2;P2;SDS_P1;SDS_P2;PMS_P1;PMS_P2;Temp;Humidity;BMP_temperature;BMP_pressure;BME280_temperature;BME280_humidity;BME280_pressure;Samples;Min_cycle;Max_cycle;Signal;HPM_P1;HPM_P2
2023/05/27 00:00:10;;;;;;;17.70;12.60;;;16.90;99.90;;;;;;5073345;28;20193;-85
2023/05/27 00:02:38;;;;;;;16.57;11.83;;;16.80;99.90;;;;;;5076997;28;20174;-88
2023/05/27 00:05:05;;;;;;;15.80;12.10;;;16.80;99.90;;;;;;5094990;28;20211;-88
2023/05/27 00:07:32;;;;;;;16.03;12.10;;;16.70;99.90;;;;;;5094602;27;20180;-87
2023/05/27 00:09:58;;;;;;;16.80;13.77;;;16.80;99.90;;;;;;5095653;27;20180;-88
2023/05/27 00:12:26;;;;;;;18.30;13.67;;;16.80;99.90;;;;;;5085441;28;20651;-87
2023/05/27 00:14:53;;;;;;;18.03;14.33;;;16.80;99.90;;;;;;5075933;28;20174;-87
2023/05/27 00:17:20;;;;;;;13.83;12.13;;;16.90;99.90;;;;;;5130119;27;20258;-87
2023/05/27 00:19:48;;;;;;;15.93;11.80;;;16.90;99.90;;;;;;5092869;28;20201;-87
2023/05/27 00:22:16;;;;;;;17.80;10.60;;;16.90;99.90;;;;;;5091296;28;20188;-85
2023/05/27 00:24:42;;;;;;;11.70;9.70;;;16.90;99.90;;;;;;5074603;27;20192;-86
2023/05/27 00:27:13;;;;;;;14.90;10.43;;;16.90;99.90;;;;;;5088443;28;20217;-86
2023/05/27 00:29:39;;;;;;;13.20;11.17;;;16.90;99.90;;;;;;5106924;27;20771;-90
2023/05/27 00:32:07;;;;;;;19.13;12.67;;;16.90;99.90;;;;;;5073054;28;20190;-93
2023/05/27 00:34:34;;;;;;;15.47;12.33;;;16.90;99.90;;;;;;5131403;27;20193;-93
2023/05/27 00:37:00;;;;;;;14.50;11.90;;;17.00;99.90;;;;;;5117187;27;20239;-94
2023/05/27 00:39:32;;;;;;;17.63;10.97;;;16.90;99.90;;;;;;5071934;28;20305;-92
2023/05/27 00:42:01;;;;;;;14.80;11.33;;;16.90;99.90;;;;;;5092757;28;20185;-92
2023/05/27 00:44:28;;;;;;;15.03;9.57;;;16.90;99.90;;;;;;5089621;28;20197;-93
2023/05/27 00:46:55;;;;;;;14.57;9.93;;;16.90;99.90;;;;;;5091854;28;20280;-94
2023/05/27 00:49:25;;;;;;;13.97;9.20;;;16.90;99.90;;;;;;5075500;28;20177;-94
2023/05/27 00:51:53;;;;;;;13.13;9.30;;;16.90;99.90;;;;;;5089741;28;20182;-88
2023/05/27 00:54:20;;;;;;;12.20;9.60;;;16.90;99.90;;;;;;5087770;28;20655;-93
2023/05/27 00:56:47;;;;;;;11.67;9.00;;;17.00;99.90;;;;;;5076124;27;20182;-88
2023/05/27 00:59:13;;;;;;;13.67;9.13;;;17.00;99.90;;;;;;5116132;27;20730;-93
2023/05/27 01:01:43;;;;;;;12.97;9.87;;;17.00;99.90;;;;;;5070982;28;20174;-91
2023/05/27 01:04:12;;;;;;;16.00;10.37;;;17.10;99.90;;;;;;5087639;28;20182;-90
2023/05/27 01:07:26;;;;;;;12.83;10.63;;;17.10;99.90;;;;;;5078776;28;20268;-92
2023/05/27 01:10:03;;;;;;;14.07;10.53;;;17.20;99.90;;;;;;5077373;27;20184;-89
2023/05/27 01:12:54;;;;;;;14.77;10.83;;;17.30;99.90;;;;;;5076816;28;20271;-93
2023/05/27 01:15:23;;;;;;;15.33;10.20;;;17.30;99.90;;;;;;5075601;28;20182;-92
2023/05/27 01:17:56;;;;;;;17.97;10.73;;;17.40;99.90;;;;;;5089047;28;20185;-93
2023/05/27 01:20:25;;;;;;;12.17;8.43;;;17.40;99.90;;;;;;5073142;28;20462;-92
2023/05/27 01:22:52;;;;;;;11.93;7.27;;;17.40;99.90;;;;;;5085306;28;20189;-93
2023/05/27 01:25:23;;;;;;;15.20;7.40;;;17.40;99.90;;;;;;5072924;28;20182;-89
2023/05/27 01:27:50;;;;;;;11.67;6.13;;;17.40;99.90;;;;;;5075303;28;20190;-87
2023/05/27 01:30:17;;;;;;;11.60;6.00;;;17.40;99.90;;;;;;5065404;28;20182;-86
2023/05/27 01:33:08;;;;;;;8.70;5.60;;;17.40;99.90;;;;;;5076032;28;20862;-86
2023/05/27 01:35:52;;;;;;;8.07;5.10;;;17.40;99.90;;;;;;5082020;27;20182;-87
2023/05/27 01:38:24;;;;;;;9.30;5.13;;;17.40;99.90;;;;;;5086603;28;20205;-89
2023/05/27 01:40:53;;;;;;;11.40;5.13;;;17.50;99.90;;;;;;5089305;27;20209;-86
2023/05/27 01:43:21;;;;;;;9.90;4.13;;;17.50;99.90;;;;;;5099326;27;20284;-85
2023/05/27 01:45:48;;;;;;;8.63;4.10;;;17.50;99.90;;;;;;5070841;28;20655;-86
2023/05/27 01:48:16;;;;;;;8.43;4.00;;;17.50;99.90;;;;;;5104673;27;20197;-92
2023/05/27 01:50:42;;;;;;;8.97;3.83;;;17.60;99.90;;;;;;5078116;28;20185;-87
2023/05/27 01:53:08;;;;;;;7.87;4.20;;;17.60;99.90;;;;;;5087423;27;20213;-85
2023/05/27 01:55:39;;;;;;;6.13;3.63;;;17.60;99.90;;;;;;5071472;28;20629;-91
2023/05/27 01:58:06;;;;;;;7.80;4.40;;;17.60;99.90;;;;;;5071832;28;20675;-90
2023/05/27 02:00:33;;;;;;;7.27;4.07;;;17.60;99.90;;;;;;5122019;27;20209;-83
2023/05/27 02:03:00;;;;;;;8.20;3.90;;;17.60;99.90;;;;;;5093038;27;20231;-90
2023/05/27 02:05:27;;;;;;;7.70;4.30;;;17.60;99.90;;;;;;5073423;27;20284;-90
2023/05/27 02:07:55;;;;;;;7.20;3.87;;;17.60;99.90;;;;;;5077628;27;20181;-89
2023/05/27 02:10:25;;;;;;;6.93;4.43;;;17.60;99.90;;;;;;5075776;28;20185;-88
2023/05/27 02:12:52;;;;;;;6.80;4.17;;;17.60;99.90;;;;;;5065763;28;20189;-87
2023/05/27 02:15:19;;;;;;;14.23;4.33;;;17.60;99.90;;;;;;5070185;28;20656;-87
2023/05/27 02:17:50;;;;;;;10.37;4.67;;;17.60;99.90;;;;;;5075024;28;20659;-87
2023/05/27 02:20:17;;;;;;;12.30;4.33;;;17.60;99.90;;;;;;5094698;28;20189;-85
2023/05/27 02:22:43;;;;;;;9.93;4.70;;;17.60;99.90;;;;;;5074137;28;20185;-85
2023/05/27 02:25:13;;;;;;;13.77;4.57;;;17.60;99.90;;;;;;5090809;27;20666;-84
2023/05/27 02:27:41;;;;;;;11.60;4.40;;;17.60;99.90;;;;;;5116188;27;20227;-87
2023/05/27 02:30:09;;;;;;;11.43;4.30;;;17.60;99.90;;;;;;5119672;27;20186;-91
2023/05/27 02:32:35;;;;;;;14.37;4.77;;;17.60;99.90;;;;;;5090130;28;20579;-88
2023/05/27 02:35:02;;;;;;;11.93;4.60;;;17.60;99.90;;;;;;5071577;28;20213;-88
2023/05/27 02:37:30;;;;;;;10.70;4.43;;;17.60;99.90;;;;;;5074285;28;20269;-84
2023/05/27 02:39:56;;;;;;;10.20;4.93;;;17.60;99.90;;;;;;5074741;28;20249;-90
2023/05/27 02:42:23;;;;;;;15.70;5.13;;;17.60;99.90;;;;;;5070381;28;20190;-84
2023/05/27 02:44:51;;;;;;;14.07;4.57;;;17.60;99.90;;;;;;5084365;28;20869;-84
2023/05/27 02:47:19;;;;;;;16.20;4.70;;;17.60;99.90;;;;;;5089751;28;20595;-87
2023/05/27 02:49:46;;;;;;;9.67;4.27;;;17.60;99.90;;;;;;5105692;28;20205;-87
2023/05/27 02:52:12;;;;;;;15.43;4.70;;;17.60;99.90;;;;;;5069045;28;20188;-85
2023/05/27 02:54:38;;;;;;;12.27;5.00;;;17.60;99.90;;;;;;5072462;28;20189;-84
2023/05/27 02:57:06;;;;;;;12.87;4.63;;;17.60;99.90;;;;;;5084273;28;20227;-86
2023/05/27 02:59:33;;;;;;;12.60;4.70;;;17.60;99.90;;;;;;5086902;28;20228;-90
2023/05/27 03:02:02;;;;;;;11.07;5.43;;;17.60;99.90;;;;;;5091268;28;20231;-90
2023/05/27 03:04:30;;;;;;;13.90;5.00;;;17.60;99.90;;;;;;5099175;28;20186;-86
2023/05/27 03:06:57;;;;;;;18.27;5.50;;;17.60;99.90;;;;;;5091701;28;20189;-88
2023/05/27 03:09:23;;;;;;;13.03;4.80;;;17.60;99.90;;;;;;5091198;28;20678;-88
2023/05/27 03:11:50;;;;;;;17.67;4.53;;;17.70;99.90;;;;;;5079457;27;20189;-88
2023/05/27 03:14:18;;;;;;;16.73;4.80;;;17.70;99.90;;;;;;5073244;28;20177;-94
2023/05/27 03:16:45;;;;;;;14.37;4.27;;;17.70;99.90;;;;;;5091777;28;20591;-91
2023/05/27 03:19:13;;;;;;;19.13;5.27;;;17.90;99.90;;;;;;5081079;27;20316;-90
2023/05/27 03:21:40;;;;;;;24.73;4.53;;;18.10;99.90;;;;;;5094357;27;20178;-90
2023/05/27 03:24:06;;;;;;;14.93;4.50;;;18.10;99.90;;;;;;5111580;27;20188;-88
2023/05/27 03:26:33;;;;;;;15.97;4.10;;;18.10;99.90;;;;;;5090650;27;20193;-86
2023/05/27 03:29:00;;;;;;;17.63;4.67;;;18.20;99.90;;;;;;5095066;27;20244;-90
2023/05/27 03:31:26;;;;;;;14.77;4.83;;;18.30;99.90;;;;;;5078438;28;20697;-92
2023/05/27 03:33:53;;;;;;;10.57;4.30;;;18.40;99.90;;;;;;5078661;27;20575;-88
2023/05/27 03:36:20;;;;;;;11.33;4.30;;;18.40;99.90;;;;;;5096746;27;20189;-88
2023/05/27 03:38:50;;;;;;;15.73;5.07;;;18.40;99.90;;;;;;5111118;27;20201;-88
2023/05/27 03:41:21;;;;;;;13.73;4.77;;;18.50;99.90;;;;;;5092524;27;20181;-88
2023/05/27 03:43:47;;;;;;;13.47;4.90;;;18.40;99.90;;;;;;5086952;28;20181;-91
2023/05/27 03:46:14;;;;;;;12.40;5.03;;;18.40;99.90;;;;;;5124372;27;20209;-90
2023/05/27 03:48:40;;;;;;;11.00;4.90;;;18.40;99.90;;;;;;5104230;28;20185;-88
2023/05/27 03:51:07;;;;;;;14.70;4.80;;;18.40;99.90;;;;;;5072873;28;20190;-87
2023/05/27 03:53:35;;;;;;;9.43;4.80;;;18.30;99.90;;;;;;5107068;27;20199;-86
2023/05/27 03:56:05;;;;;;;10.73;4.57;;;18.30;99.90;;;;;;5101434;27;20195;-87
2023/05/27 03:58:31;;;;;;;12.83;4.67;;;18.30;99.90;;;;;;5081449;28;20653;-87
2023/05/27 04:00:58;;;;;;;15.83;5.47;;;18.30;99.90;;;;;;5094945;28;20184;-89
2023/05/27 04:03:26;;;;;;;10.50;4.77;;;18.30;99.90;;;;;;5075600;28;20185;-90
2023/05/27 04:05:53;;;;;;;10.60;4.87;;;18.30;99.90;;;;;;5078078;27;20226;-86
2023/05/27 04:08:22;;;;;;;12.47;5.40;;;18.30;99.90;;;;;;5110730;27;20280;-86
2023/05/27 04:10:48;;;;;;;14.33;4.70;;;18.30;99.90;;;;;;5107956;27;20185;-89
2023/05/27 04:13:20;;;;;;;10.77;4.13;;;18.30;99.90;;;;;;5135706;27;20211;-87
2023/05/27 04:15:48;;;;;;;9.90;4.47;;;18.30;99.90;;;;;;5076819;28;20517;-84
2023/05/27 04:18:15;;;;;;;10.20;4.63;;;18.30;99.90;;;;;;5104719;28;20228;-86
2023/05/27 04:20:43;;;;;;;11.70;4.63;;;18.40;99.90;;;;;;5091074;28;20239;-87
2023/05/27 04:23:11;;;;;;;14.53;4.73;;;18.40;99.90;;;;;;5073261;28;20207;-87
2023/05/27 04:25:39;;;;;;;10.70;4.70;;;18.40;99.90;;;;;;5080167;27;20212;-85
2023/05/27 04:28:06;;;;;;;14.53;5.17;;;18.40;99.90;;;;;;5101032;27;20206;-87
2023/05/27 04:30:33;;;;;;;11.73;4.93;;;18.50;99.90;;;;;;5089661;27;20544;-88
2023/05/27 04:33:01;;;;;;;14.13;5.10;;;18.50;99.90;;;;;;5093734;28;20227;-87
2023/05/27 04:35:30;;;;;;;12.50;4.87;;;18.60;99.90;;;;;;5074376;28;20768;-90
2023/05/27 04:38:01;;;;;;;11.43;4.50;;;18.60;99.90;;;;;;5093650;28;20182;-87
2023/05/27 04:40:31;;;;;;;9.00;4.50;;;18.60;99.90;;;;;;5071520;28;20186;-85
2023/05/27 04:42:58;;;;;;;13.93;4.97;;;18.60;99.90;;;;;;5075054;27;20182;-86
2023/05/27 04:45:26;;;;;;;13.53;4.93;;;18.60;99.90;;;;;;5121571;27;21298;-88
2023/05/27 04:47:52;;;;;;;14.17;4.47;;;18.70;99.90;;;;;;5072913;28;20227;-92
2023/05/27 04:50:19;;;;;;;12.60;5.13;;;18.70;99.90;;;;;;5076578;28;20189;-92
2023/05/27 04:52:47;;;;;;;12.77;4.43;;;18.70;99.90;;;;;;5108491;28;20201;-89
2023/05/27 04:55:16;;;;;;;18.27;5.87;;;18.70;99.90;;;;;;5074797;28;20188;-92
2023/05/27 04:57:43;;;;;;;13.33;4.43;;;18.80;99.90;;;;;;5069229;28;20186;-85
2023/05/27 05:02:39;;;;;;;10.83;4.63;;;18.80;99.90;;;;;;5106606;27;20192;-85
2023/05/27 05:05:10;;;;;;;12.30;4.60;;;18.80;99.90;;;;;;5065116;28;20194;-90
2023/05/27 05:07:40;;;;;;;14.90;5.20;;;18.80;99.90;;;;;;5074004;28;20178;-87
2023/05/27 05:10:08;;;;;;;12.80;5.23;;;18.80;99.90;;;;;;5107301;27;20173;-89
2023/05/27 05:12:36;;;;;;;11.13;5.47;;;18.80;99.90;;;;;;5075449;28;20181;-89
2023/05/27 05:15:03;;;;;;;11.90;5.10;;;18.80;99.90;;;;;;5103731;28;20182;-88
2023/05/27 05:17:30;;;;;;;13.77;5.43;;;18.80;99.90;;;;;;5073244;28;20227;-89
2023/05/27 05:19:56;;;;;;;15.83;5.57;;;18.80;99.90;;;;;;5070940;28;20779;-89
2023/05/27 05:22:23;;;;;;;12.10;6.00;;;18.80;99.90;;;;;;5106173;28;20174;-87
2023/05/27 05:24:50;;;;;;;15.37;6.13;;;18.90;99.90;;;;;;5094829;27;20196;-88
2023/05/27 05:27:17;;;;;;;17.27;5.90;;;18.90;99.90;;;;;;5073137;28;20190;-92
2023/05/27 05:29:49;;;;;;;11.23;6.20;;;19.00;99.90;;;;;;5101805;28;20189;-90
2023/05/27 05:32:17;;;;;;;13.20;5.70;;;19.00;99.90;;;;;;5120922;27;20243;-89
2023/05/27 05:34:46;;;;;;;12.80;5.63;;;19.00;99.90;;;;;;5091832;28;20587;-86
2023/05/27 05:37:13;;;;;;;9.47;5.27;;;19.10;99.90;;;;;;5078360;28;20232;-86
2023/05/27 05:39:44;;;;;;;10.57;5.50;;;19.10;99.90;;;;;;5100307;28;20202;-89
2023/05/27 05:42:23;;;;;;;11.57;5.87;;;19.20;99.90;;;;;;5109498;27;20563;-89
2023/05/27 05:44:53;;;;;;;9.13;5.43;;;19.30;99.90;;;;;;5124818;27;20173;-89
2023/05/27 05:47:29;;;;;;;14.10;5.93;;;19.30;99.90;;;;;;5075444;27;20244;-89
2023/05/27 05:49:57;;;;;;;10.77;5.97;;;19.40;99.90;;;;;;5088568;28;20276;-86
2023/05/27 05:52:25;;;;;;;14.90;7.73;;;19.50;99.90;;;;;;5095761;27;20780;-88
2023/05/27 05:54:52;;;;;;;16.47;7.40;;;19.50;99.90;;;;;;5078750;27;20193;-89
2023/05/27 05:57:19;;;;;;;14.10;7.10;;;19.60;99.90;;;;;;5097579;28;20208;-86
2023/05/27 05:59:45;;;;;;;17.30;6.57;;;19.60;99.90;;;;;;5102785;27;20209;-87
2023/05/27 06:02:13;;;;;;;16.53;7.27;;;19.70;99.90;;;;;;5088437;27;20183;-87
2023/05/27 06:04:42;;;;;;;16.63;7.87;;;19.70;99.90;;;;;;5119916;27;20288;-88
2023/05/27 06:07:11;;;;;;;15.40;7.30;;;19.70;99.90;;;;;;5120881;27;20189;-87
2023/05/27 06:09:44;;;;;;;16.20;7.77;;;19.70;99.90;;;;;;5084013;28;20183;-89
2023/05/27 06:12:10;;;;;;;12.03;7.37;;;19.70;99.90;;;;;;5110948;27;20282;-89
2023/05/27 06:14:37;;;;;;;14.47;7.10;;;19.70;99.90;;;;;;5071817;28;20643;-89
2023/05/27 06:17:06;;;;;;;16.87;7.90;;;19.70;99.90;;;;;;5117457;27;21289;-88
2023/05/27 06:19:33;;;;;;;13.23;7.30;;;19.80;99.90;;;;;;5075224;27;20202;-89
2023/05/27 06:22:00;;;;;;;14.27;6.73;;;19.80;99.90;;;;;;5119341;27;20185;-89
2023/05/27 06:24:26;;;;;;;18.53;7.10;;;19.90;99.90;;;;;;5082550;28;20415;-88
2023/05/27 06:26:52;;;;;;;10.87;6.00;;;20.00;99.90;;;;;;5072535;27;20189;-88
2023/05/27 06:29:22;;;;;;;13.50;5.90;;;20.10;99.90;;;;;;5070238;28;20240;-87
2023/05/27 06:31:49;;;;;;;13.97;5.60;;;20.20;99.90;;;;;;5094234;28;20200;-89
2023/05/27 06:34:19;;;;;;;11.27;5.70;;;20.30;99.90;;;;;;5077852;28;20267;-92
2023/05/27 06:36:48;;;;;;;15.07;5.83;;;20.40;99.90;;;;;;5120814;27;20193;-93
2023/05/27 06:39:16;;;;;;;11.03;4.63;;;20.40;99.90;;;;;;5090942;28;20205;-87
2023/05/27 06:41:42;;;;;;;21.13;5.50;;;20.60;99.90;;;;;;5122978;28;20190;-88
2023/05/27 06:44:09;;;;;;;12.47;4.27;;;20.60;99.90;;;;;;5103457;28;20652;-87
2023/05/27 06:46:35;;;;;;;11.10;5.37;;;20.70;99.90;;;;;;5101394;28;20256;-87
2023/05/27 06:49:02;;;;;;;12.07;5.67;;;20.80;99.90;;;;;;5097467;28;20214;-89
2023/05/27 06:51:29;;;;;;;11.50;5.80;;;20.80;99.90;;;;;;5074999;28;20185;-91
2023/05/27 06:53:55;;;;;;;10.13;6.00;;;20.90;99.90;;;;;;5092899;28;20185;-90
2023/05/27 06:56:22;;;;;;;15.50;6.37;;;20.90;99.90;;;;;;5076466;28;20195;-90
2023/05/27 06:58:50;;;;;;;12.27;5.53;;;21.00;99.90;;;;;;5089134;28;20205;-88
2023/05/27 07:01:17;;;;;;;12.73;5.73;;;21.00;99.90;;;;;;5070823;28;20196;-89
2023/05/27 07:03:46;;;;;;;13.03;6.30;;;21.00;99.90;;;;;;5088194;28;20182;-88
2023/05/27 07:06:19;;;;;;;10.73;5.57;;;21.10;99.90;;;;;;5094139;28;20254;-86
2023/05/27 07:08:46;;;;;;;12.52;5.57;;;21.20;99.90;;;;;;5089958;28;20197;-84
2023/05/27 07:11:12;;;;;;;12.73;5.17;;;21.20;99.90;;;;;;5071983;28;20284;-88
2023/05/27 07:13:56;;;;;;;15.40;5.65;;;21.40;99.90;;;;;;5075684;28;20652;-86
2023/05/27 07:16:23;;;;;;;17.35;5.15;;;21.50;99.90;;;;;;5074622;28;20185;-87
2023/05/27 07:19:10;;;;;;;15.23;5.20;;;21.70;99.90;;;;;;5071871;28;20213;-86
2023/05/27 07:21:44;;;;;;;16.70;5.82;;;21.80;99.90;;;;;;5073477;28;20269;-84
2023/05/27 07:27:20;;;;;;;10.05;5.20;;;22.20;99.90;;;;;;5090952;28;20216;-84
2023/05/27 07:29:49;;;;;;;11.45;4.53;;;22.30;99.90;;;;;;5118608;28;20192;-86
2023/05/27 07:32:16;;;;;;;9.85;5.35;;;22.30;99.90;;;;;;5061880;28;20281;-86
2023/05/27 07:34:43;;;;;;;13.25;4.65;;;22.30;99.90;;;;;;5059031;28;20189;-87
2023/05/27 07:37:09;;;;;;;14.52;5.43;;;22.30;99.90;;;;;;5080197;28;20196;-87
2023/05/27 07:39:36;;;;;;;16.67;5.30;;;22.30;99.90;;;;;;5117542;27;20252;-88
2023/05/27 07:42:03;;;;;;;13.00;4.40;;;22.30;99.90;;;;;;5096236;28;20178;-84
2023/05/27 07:44:30;;;;;;;15.10;5.70;;;22.20;99.90;;;;;;5070387;28;20521;-89
2023/05/27 07:46:57;;;;;;;15.00;5.65;;;22.10;99.90;;;;;;5070120;28;20181;-85
2023/05/27 07:49:25;;;;;;;14.50;5.40;;;22.10;99.90;;;;;;5103379;28;20213;-92
2023/05/27 07:51:51;;;;;;;16.50;6.15;;;22.10;99.90;;;;;;5105844;28;20219;-91
2023/05/27 07:54:19;;;;;;;14.85;6.22;;;22.10;99.90;;;;;;5090431;28;20263;-89
2023/05/27 07:56:46;;;;;;;13.57;5.88;;;22.10;99.90;;;;;;5090846;28;20781;-88
2023/05/27 07:59:13;;;;;;;14.52;5.85;;;22.20;99.90;;;;;;5091373;27;20200;-90
2023/05/27 08:01:40;;;;;;;13.05;5.03;;;22.20;99.90;;;;;;5089474;28;20272;-94
2023/05/27 08:04:06;;;;;;;20.40;5.70;;;22.30;99.90;;;;;;5073490;28;20202;-90
2023/05/27 08:06:36;;;;;;;10.40;4.68;;;22.30;99.90;;;;;;5076520;28;20182;-90
2023/05/27 08:09:04;;;;;;;23.13;6.25;;;22.30;99.90;;;;;;5069625;28;20217;-90
2023/05/27 08:11:32;;;;;;;19.38;5.20;;;22.40;99.90;;;;;;5075915;28;20491;-89
2023/05/27 08:14:01;;;;;;;14.48;4.43;;;22.50;99.90;;;;;;5082903;28;20216;-88
2023/05/27 08:16:29;;;;;;;20.83;6.05;;;22.80;99.90;;;;;;5069917;28;20190;-86
2023/05/27 08:19:06;;;;;;;21.15;5.60;;;23.00;99.90;;;;;;5100206;28;20224;-86
2023/05/27 08:21:33;;;;;;;19.50;5.88;;;23.30;99.90;;;;;;5128865;27;20272;-89
2023/05/27 08:24:00;;;;;;;16.42;5.60;;;23.50;99.90;;;;;;5093887;28;20662;-86
2023/05/27 08:26:26;;;;;;;14.65;5.63;;;23.50;99.90;;;;;;5090844;28;20235;-88
2023/05/27 08:28:53;;;;;;;19.80;5.18;;;23.50;99.90;;;;;;5124850;27;20182;-87
2023/05/27 08:31:20;;;;;;;23.33;6.68;;;23.60;99.90;;;;;;5088973;28;20182;-88
2023/05/27 08:33:46;;;;;;;15.88;5.63;;;23.60;99.90;;;;;;5067898;28;20197;-90
2023/05/27 08:36:29;;;;;;;19.25;5.85;;;23.60;99.90;;;;;;5092331;27;20819;-92
2023/05/27 08:39:07;;;;;;;21.42;5.88;;;23.60;99.90;;;;;;5079771;28;20205;-88
2023/05/27 08:42:08;;;;;;;15.95;5.15;;;23.60;99.90;;;;;;5086395;28;20186;-88
2023/05/27 08:44:35;;;;;;;23.35;5.55;;;23.80;99.90;;;;;;5072284;28;20189;-84
2023/05/27 08:47:03;;;;;;;19.58;5.43;;;24.00;99.90;;;;;;5089808;27;20230;-87
2023/05/27 08:49:31;;;;;;;21.30;6.38;;;24.10;99.90;;;;;;5072354;27;20216;-87
2023/05/27 08:52:06;;;;;;;17.13;5.30;;;24.20;99.90;;;;;;5071279;28;20181;-91
2023/05/27 08:54:35;;;;;;;19.25;5.30;;;24.20;99.90;;;;;;5087878;28;20655;-88
2023/05/27 08:57:07;;;;;;;23.05;6.15;;;24.20;99.90;;;;;;5088850;27;20185;-87
2023/05/27 08:59:35;;;;;;;26.45;5.85;;;24.30;99.90;;;;;;5099673;27;20567;-85
2023/05/27 09:02:10;;;;;;;18.38;6.15;;;24.40;99.90;;;;;;5096351;27;20547;-87
2023/05/27 09:04:42;;;;;;;21.67;6.60;;;24.60;99.90;;;;;;5097165;27;20183;-85
2023/05/27 09:07:26;;;;;;;16.73;5.10;;;24.60;99.90;;;;;;5085790;28;20194;-88
2023/05/27 09:10:01;;;;;;;17.58;5.93;;;24.60;99.90;;;;;;5055433;28;20757;-84
2023/05/27 09:12:29;;;;;;;13.77;5.55;;;24.60;99.90;;;;;;5051218;28;20235;-88
2023/05/27 09:15:02;;;;;;;17.88;6.50;;;24.60;99.90;;;;;;5068406;28;21054;-86
2023/05/27 09:17:29;;;;;;;17.05;5.93;;;24.70;99.90;;;;;;5068037;28;20576;-85
2023/05/27 09:20:06;;;;;;;15.13;5.88;;;24.70;99.90;;;;;;5064812;28;20206;-86
2023/05/27 09:22:40;;;;;;;18.98;5.88;;;24.80;99.90;;;;;;5069065;28;20197;-88
2023/05/27 09:25:08;;;;;;;18.10;6.10;;;24.90;99.90;;;;;;5058574;28;20189;-85
2023/05/27 09:27:35;;;;;;;23.52;5.93;;;25.00;99.90;;;;;;5074087;28;20197;-90
2023/05/27 09:30:12;;;;;;;26.00;5.35;;;25.00;99.90;;;;;;5035744;28;20636;-90
2023/05/27 09:32:38;;;;;;;20.33;5.60;;;25.10;99.90;;;;;;5062423;28;20256;-89
2023/05/27 09:35:08;;;;;;;21.48;5.78;;;25.10;99.90;;;;;;5034526;28;20293;-88
2023/05/27 09:37:35;;;;;;;23.08;5.20;;;25.00;99.90;;;;;;5052784;27;20676;-86
2023/05/27 09:40:08;;;;;;;32.92;5.40;;;25.00;99.90;;;;;;5100985;28;20237;-89
2023/05/27 09:42:50;;;;;;;23.90;5.47;;;24.90;99.90;;;;;;5104394;27;20250;-86
2023/05/27 09:45:21;;;;;;;26.38;5.72;;;24.80;99.90;;;;;;5086496;28;20195;-85
2023/05/27 09:47:51;;;;;;;24.45;6.55;;;24.90;99.90;;;;;;5112120;27;20224;-85
2023/05/27 09:50:39;;;;;;;17.90;5.20;;;24.80;99.90;;;;;;5100580;27;20264;-84
2023/05/27 09:53:06;;;;;;;17.95;5.35;;;24.80;99.90;;;;;;5097958;27;20276;-85
2023/05/27 09:55:33;;;;;;;22.73;5.68;;;24.70;99.90;;;;;;5097784;27;20583;-88
2023/05/27 09:58:01;;;;;;;22.95;6.10;;;24.70;99.90;;;;;;5069592;27;20189;-89
2023/05/27 10:00:33;;;;;;;22.20;5.72;;;24.70;99.90;;;;;;5100617;27;20188;-87
2023/05/27 10:03:03;;;;;;;23.83;6.22;;;24.80;99.90;;;;;;5072281;28;20284;-89
2023/05/27 10:05:47;;;;;;;28.92;6.93;;;25.00;99.90;;;;;;5086222;28;20233;-87
2023/05/27 10:08:16;;;;;;;25.13;6.25;;;25.10;99.90;;;;;;5068131;28;20564;-88
2023/05/27 10:10:45;;;;;;;31.35;5.55;;;25.30;99.90;;;;;;5066036;28;20287;-91
2023/05/27 10:13:16;;;;;;;23.95;5.70;;;25.70;99.90;;;;;;5093877;28;20226;-86
2023/05/27 10:15:51;;;;;;;37.20;7.20;;;26.00;99.90;;;;;;5069559;28;20193;-89
2023/05/27 10:18:29;;;;;;;25.70;5.68;;;26.00;99.90;;;;;;5073797;27;20196;-86
2023/05/27 10:20:59;;;;;;;34.78;6.18;;;26.10;99.90;;;;;;5070525;28;20201;-86
2023/05/27 10:23:29;;;;;;;19.83;5.38;;;26.20;99.90;;;;;;5117219;27;20186;-84
2023/05/27 10:26:07;;;;;;;27.35;5.72;;;26.10;99.90;;;;;;5066611;28;20299;-83
2023/05/27 10:28:39;;;;;;;17.27;5.82;;;26.20;99.90;;;;;;5097936;27;20200;-88
2023/05/27 10:31:08;;;;;;;21.63;5.60;;;26.10;99.90;;;;;;5069282;28;20218;-84
2023/05/27 10:33:42;;;;;;;23.63;5.88;;;26.00;99.90;;;;;;5100782;28;20676;-86
2023/05/27 10:36:17;;;;;;;34.55;6.28;;;26.00;99.90;;;;;;5100847;28;20639;-83
2023/05/27 10:39:04;;;;;;;27.75;6.15;;;26.20;99.90;;;;;;5083503;27;20738;-85
2023/05/27 10:41:48;;;;;;;28.05;5.55;;;26.30;99.90;;;;;;5103332;28;20184;-84
2023/05/27 10:44:29;;;;;;;26.00;5.93;;;26.40;99.90;;;;;;5073690;28;20185;-84
2023/05/27 10:47:37;;;;;;;21.83;6.28;;;26.70;99.90;;;;;;5091240;28;20192;-83
2023/05/27 10:50:13;;;;;;;23.10;5.63;;;27.00;99.90;;;;;;5095429;28;20205;-85
2023/05/27 10:52:44;;;;;;;29.60;6.38;;;26.90;99.90;;;;;;5085562;28;20181;-84
2023/05/27 10:55:30;;;;;;;47.45;6.90;;;27.00;99.90;;;;;;5099316;28;20238;-85
2023/05/27 10:57:57;;;;;;;36.92;6.45;;;27.20;99.90;;;;;;5069796;28;20190;-85
2023/05/27 11:00:28;;;;;;;32.90;5.93;;;27.70;99.90;;;;;;5085469;28;20648;-79
2023/05/27 11:02:58;;;;;;;24.30;6.18;;;28.00;99.90;;;;;;5065855;28;20255;-84
2023/05/27 11:05:31;;;;;;;23.25;5.88;;;28.00;99.90;;;;;;5068085;28;20190;-89
2023/05/27 11:08:05;;;;;;;35.25;6.32;;;28.20;99.90;;;;;;5061145;28;20220;-83
2023/05/27 11:10:32;;;;;;;24.20;6.22;;;28.50;99.90;;;;;;5058569;28;20185;-83
2023/05/27 11:12:58;;;;;;;37.22;6.50;;;28.80;99.90;;;;;;5095676;28;20181;-89
2023/05/27 11:15:31;;;;;;;34.88;6.68;;;28.90;99.90;;;;;;5089909;28;20240;-81
2023/05/27 11:18:05;;;;;;;28.55;6.47;;;29.20;99.90;;;;;;5062418;28;20296;-84
2023/05/27 11:20:42;;;;;;;32.80;6.13;;;29.20;99.90;;;;;;5075967;28;20193;-83
2023/05/27 11:23:12;;;;;;;31.20;6.47;;;29.30;99.90;;;;;;5080373;28;20579;-88
2023/05/27 11:25:46;;;;;;;30.83;6.35;;;29.10;99.90;;;;;;5091470;28;20181;-88
2023/05/27 11:28:16;;;;;;;26.17;6.00;;;28.90;99.90;;;;;;5071008;28;20212;-82
2023/05/27 11:30:43;;;;;;;35.60;6.20;;;29.00;99.90;;;;;;5104761;27;20540;-84
2023/05/27 11:33:13;;;;;;;33.65;6.03;;;29.10;99.90;;;;;;5100887;27;20205;-83
2023/05/27 11:35:39;;;;;;;38.00;6.93;;;29.10;99.90;;;;;;5069607;27;20185;-89
2023/05/27 11:50:04;;;;;;;36.35;7.05;;;29.10;99.50;;;;;;5009818;28;20577;-76
2023/05/27 11:52:30;;;;;;;34.67;6.70;;;29.40;99.70;;;;;;5008285;28;20268;-76
2023/05/27 14:22:51;;;;;;;28.20;5.85;;;27.30;96.30;;;;;;5047855;28;20574;-76
2023/05/27 14:25:19;;;;;;;30.73;5.40;;;27.20;97.60;;;;;;5029309;28;20685;-76
2023/05/27 14:27:45;;;;;;;29.02;5.68;;;27.10;97.30;;;;;;5027862;28;20581;-77
2023/05/27 14:30:12;;;;;;;25.65;6.00;;;27.10;97.50;;;;;;5032619;28;20210;-76
2023/05/27 14:32:38;;;;;;;36.72;6.25;;;27.10;97.50;;;;;;5035694;28;20198;-76
2023/05/27 14:35:06;;;;;;;27.25;5.85;;;27.10;97.40;;;;;;5033639;28;20234;-76
2023/05/27 14:37:32;;;;;;;26.20;5.43;;;27.10;97.20;;;;;;5028958;28;20191;-76
2023/05/27 14:39:58;;;;;;;26.45;5.65;;;27.10;97.20;;;;;;5038688;28;20190;-76
2023/05/27 14:42:25;;;;;;;23.08;5.80;;;27.00;96.50;;;;;;5039866;28;20196;-76
2023/05/27 14:44:51;;;;;;;27.05;5.95;;;27.00;96.90;;;;;;5035936;28;20192;-76
2023/05/27 14:47:17;;;;;;;25.75;5.55;;;26.90;96.80;;;;;;5029173;28;20189;-76
2023/05/27 14:49:44;;;;;;;24.58;6.68;;;26.90;96.50;;;;;;5031304;28;20211;-75
2023/05/27 14:52:10;;;;;;;36.70;6.35;;;26.90;97.00;;;;;;5035952;28;20679;-76
2023/05/27 14:54:36;;;;;;;26.80;5.32;;;26.90;97.10;;;;;;5031971;28;20194;-76
2023/05/27 14:57:03;;;;;;;26.95;5.88;;;26.80;96.70;;;;;;5046883;28;20606;-76
2023/05/27 14:59:29;;;;;;;27.00;5.85;;;26.80;97.00;;;;;;5019459;28;20196;-76
2023/05/27 15:01:56;;;;;;;40.05;6.72;;;26.70;97.00;;;;;;5031271;28;20226;-76
2023/05/27 15:04:22;;;;;;;40.78;7.07;;;26.70;97.20;;;;;;5034690;28;20904;-76
2023/05/27 15:06:48;;;;;;;37.10;7.85;;;26.70;97.40;;;;;;5028302;28;20543;-76
2023/05/27 15:09:15;;;;;;;34.03;6.75;;;26.70;97.30;;;;;;5023003;28;20187;-76
2023/05/27 15:11:41;;;;;;;42.25;7.57;;;26.60;97.70;;;;;;5027974;28;20192;-76
2023/05/27 15:14:07;;;;;;;37.58;7.50;;;26.60;97.80;;;;;;5038503;28;20187;-76
2023/05/27 15:16:34;;;;;;;33.15;7.00;;;26.50;98.10;;;;;;5031645;28;20193;-76
2023/05/27 15:19:00;;;;;;;33.42;7.32;;;26.50;98.40;;;;;;5023602;28;20250;-76
2023/05/27 15:21:26;;;;;;;38.20;8.18;;;26.50;98.40;;;;;;5032183;28;20220;-76
2023/05/27 15:23:53;;;;;;;46.95;7.47;;;26.40;98.50;;;;;;5022423;28;20205;-76
2023/05/27 15:26:19;;;;;;;53.72;7.70;;;26.40;98.60;;;;;;5018299;28;20181;-77
2023/05/27 15:28:45;;;;;;;52.60;8.18;;;26.30;98.70;;;;;;4999547;28;20185;-76
2023/05/27 15:31:12;;;;;;;50.25;8.30;;;26.30;98.80;;;;;;5024440;28;20197;-77